sensor_id;sensor_type;location;lat;lon;timestamp;temperature;humidity
19342;DHT22;9807;48.258;12.690;2023-07-29T00:02:01;19.60;99.90
19342;DHT22;9807;48.258;12.690;2023-07-29T00:04:26;19.30;99.90
19342;DHT22;9807;48.258;12.690;2023-07-29T00:06:52;19.10;99.90
19342;DHT22;9807;48.258;12.690;2023-07-29T00:09:18;19.00;99.90
19342;DHT22;9807;48.258;12.690;2023-07-29T00:11:43;19.20;99.90
19342;DHT22;9807;48.258;12.690;2023-07-29T00:14:09;19.30;99.90
19342;DHT22;9807;48.258;12.690;2023-07-29T00:16:35;19.20;99.90
19342;DHT22;9807;48.258;12.690;2023-07-29T00:19:02;19.00;99.90
19342;DHT22;9807;48.258;12.690;2023-07-29T00:21:28;19.00;99.90
19342;DHT22;9807;48.258;12.690;2023-07-29T00:23:53;19.00;99.90
19342;DHT22;9807;48.258;12.690;2023-07-29T00:26:19;19.00;99.90
19342;DHT22;9807;48.258;12.690;2023-07-29T00:28:46;19.00;99.90
19342;DHT22;9807;48.258;12.690;2023-07-29T00:31:12;19.00;99.90
19342;DHT22;9807;48.258;12.690;2023-07-29T00:33:37;18.90;99.90
19342;DHT22;9807;48.258;12.690;2023-07-29T00:36:03;18.80;99.90
19342;DHT22;9807;48.258;12.690;2023-07-29T00:38:29;18.60;99.90
19342;DHT22;9807;48.258;12.690;2023-07-29T00:40:57;18.40;99.90
19342;DHT22;9807;48.258;12.690;2023-07-29T00:43:24;18.30;99.90
19342;DHT22;9807;48.258;12.690;2023-07-29T00:45:49;18.20;99.90
19342;DHT22;9807;48.258;12.690;2023-07-29T00:48:15;18.10;99.90
19342;DHT22;9807;48.258;12.690;2023-07-29T00:50:44;18.00;99.90
19342;DHT22;9807;48.258;12.690;2023-07-29T00:53:10;18.00;99.90
19342;DHT22;9807;48.258;12.690;2023-07-29T00:55:35;17.90;99.90
19342;DHT22;9807;48.258;12.690;2023-07-29T00:58:02;17.80;99.90
19342;DHT22;9807;48.258;12.690;2023-07-29T01:00:28;17.90;99.90
19342;DHT22;9807;48.258;12.690;2023-07-29T01:02:54;17.90;99.90
19342;DHT22;9807;48.258;12.690;2023-07-29T01:05:20;17.90;99.90
19342;DHT22;9807;48.258;12.690;2023-07-29T01:13:43;17.90;99.90
19342;DHT22;9807;48.258;12.690;2023-07-29T01:18:47;17.90;99.90
19342;DHT22;9807;48.258;12.690;2023-07-29T01:21:14;17.90;99.90
19342;DHT22;9807;48.258;12.690;2023-07-29T01:23:41;17.90;99.90
19342;DHT22;9807;48.258;12.690;2023-07-29T01:26:07;17.90;99.90
19342;DHT22;9807;48.258;12.690;2023-07-29T01:28:32;17.90;99.90
19342;DHT22;9807;48.258;12.690;2023-07-29T01:31:19;17.90;99.90
19342;DHT22;9807;48.258;12.690;2023-07-29T01:33:53;17.90;99.90
19342;DHT22;9807;48.258;12.690;2023-07-29T01:36:23;18.00;99.90
19342;DHT22;9807;48.258;12.690;2023-07-29T01:38:54;18.00;99.90
19342;DHT22;9807;48.258;12.690;2023-07-29T01:41:21;17.90;99.90
19342;DHT22;9807;48.258;12.690;2023-07-29T01:43:48;17.90;99.90
19342;DHT22;9807;48.258;12.690;2023-07-29T01:46:14;18.00;99.90
19342;DHT22;9807;48.258;12.690;2023-07-29T01:48:43;18.20;99.90
19342;DHT22;9807;48.258;12.690;2023-07-29T01:51:11;18.40;99.90
19342;DHT22;9807;48.258;12.690;2023-07-29T01:53:37;18.60;99.90
19342;DHT22;9807;48.258;12.690;2023-07-29T01:56:03;18.70;99.90
19342;DHT22;9807;48.258;12.690;2023-07-29T01:58:29;18.90;99.90
19342;DHT22;9807;48.258;12.690;2023-07-29T02:00:54;19.10;99.90
19342;DHT22;9807;48.258;12.690;2023-07-29T02:03:20;19.30;99.90
19342;DHT22;9807;48.258;12.690;2023-07-29T02:05:46;19.50;99.90
19342;DHT22;9807;48.258;12.690;2023-07-29T02:08:12;19.70;99.90
19342;DHT22;9807;48.258;12.690;2023-07-29T02:10:37;19.90;99.90
19342;DHT22;9807;48.258;12.690;2023-07-29T02:13:03;20.00;99.90
19342;DHT22;9807;48.258;12.690;2023-07-29T02:15:29;20.00;99.90
19342;DHT22;9807;48.258;12.690;2023-07-29T02:17:55;20.10;99.90
19342;DHT22;9807;48.258;12.690;2023-07-29T02:20:21;20.10;99.90
19342;DHT22;9807;48.258;12.690;2023-07-29T02:22:46;20.20;99.90
19342;DHT22;9807;48.258;12.690;2023-07-29T02:25:14;20.20;99.90
19342;DHT22;9807;48.258;12.690;2023-07-29T02:27:39;20.30;99.90
19342;DHT22;9807;48.258;12.690;2023-07-29T02:30:07;20.30;99.90
19342;DHT22;9807;48.258;12.690;2023-07-29T02:32:35;20.30;99.90
19342;DHT22;9807;48.258;12.690;2023-07-29T02:35:00;20.30;99.90
19342;DHT22;9807;48.258;12.690;2023-07-29T02:37:26;20.30;99.90
19342;DHT22;9807;48.258;12.690;2023-07-29T02:39:52;20.30;99.90
19342;DHT22;9807;48.258;12.690;2023-07-29T02:42:17;20.30;99.90
19342;DHT22;9807;48.258;12.690;2023-07-29T02:44:43;20.30;99.90
19342;DHT22;9807;48.258;12.690;2023-07-29T02:47:12;20.30;99.90
19342;DHT22;9807;48.258;12.690;2023-07-29T02:49:37;20.30;99.90
19342;DHT22;9807;48.258;12.690;2023-07-29T02:52:03;20.30;99.90
19342;DHT22;9807;48.258;12.690;2023-07-29T02:54:29;20.30;99.90
19342;DHT22;9807;48.258;12.690;2023-07-29T02:56:54;20.30;99.90
19342;DHT22;9807;48.258;12.690;2023-07-29T02:59:20;20.30;99.90
19342;DHT22;9807;48.258;12.690;2023-07-29T03:01:46;20.30;99.90
19342;DHT22;9807;48.258;12.690;2023-07-29T03:04:12;20.30;99.90
19342;DHT22;9807;48.258;12.690;2023-07-29T03:06:38;20.30;99.90
19342;DHT22;9807;48.258;12.690;2023-07-29T03:09:04;20.30;99.90
19342;DHT22;9807;48.258;12.690;2023-07-29T03:11:30;20.30;99.90
19342;DHT22;9807;48.258;12.690;2023-07-29T03:13:56;20.20;99.90
19342;DHT22;9807;48.258;12.690;2023-07-29T03:16:22;20.20;99.90
19342;DHT22;9807;48.258;12.690;2023-07-29T03:18:48;20.20;99.90
19342;DHT22;9807;48.258;12.690;2023-07-29T03:21:14;20.20;99.90
19342;DHT22;9807;48.258;12.690;2023-07-29T03:23:40;20.10;99.90
19342;DHT22;9807;48.258;12.690;2023-07-29T03:26:06;20.00;99.90
19342;DHT22;9807;48.258;12.690;2023-07-29T03:28:38;20.00;99.90
19342;DHT22;9807;48.258;12.690;2023-07-29T03:31:04;20.00;99.90
19342;DHT22;9807;48.258;12.690;2023-07-29T03:33:30;20.00;99.90
19342;DHT22;9807;48.258;12.690;2023-07-29T03:35:55;20.00;99.90
19342;DHT22;9807;48.258;12.690;2023-07-29T03:38:21;20.00;99.90
19342;DHT22;9807;48.258;12.690;2023-07-29T03:40:47;20.10;99.90
19342;DHT22;9807;48.258;12.690;2023-07-29T03:43:12;20.00;99.90
19342;DHT22;9807;48.258;12.690;2023-07-29T03:45:41;20.00;99.90
19342;DHT22;9807;48.258;12.690;2023-07-29T03:48:06;20.00;99.90
19342;DHT22;9807;48.258;12.690;2023-07-29T03:50:35;20.00;99.90
19342;DHT22;9807;48.258;12.690;2023-07-29T03:53:02;20.00;99.90
19342;DHT22;9807;48.258;12.690;2023-07-29T03:55:28;20.00;99.90
19342;DHT22;9807;48.258;12.690;2023-07-29T03:57:57;20.00;99.90
19342;DHT22;9807;48.258;12.690;2023-07-29T04:00:23;20.00;99.90
19342;DHT22;9807;48.258;12.690;2023-07-29T04:02:49;19.90;99.90
19342;DHT22;9807;48.258;12.690;2023-07-29T04:05:15;19.90;99.90
19342;DHT22;9807;48.258;12.690;2023-07-29T04:07:43;19.90;99.90
19342;DHT22;9807;48.258;12.690;2023-07-29T04:10:09;19.80;99.90
19342;DHT22;9807;48.258;12.690;2023-07-29T04:12:35;19.80;99.90
19342;DHT22;9807;48.258;12.690;2023-07-29T04:15:01;19.90;99.90
19342;DHT22;9807;48.258;12.690;2023-07-29T04:17:27;19.80;99.90
19342;DHT22;9807;48.258;12.690;2023-07-29T04:19:53;19.70;99.90
19342;DHT22;9807;48.258;12.690;2023-07-29T04:22:18;19.80;99.90
19342;DHT22;9807;48.258;12.690;2023-07-29T04:24:44;19.70;99.90
19342;DHT22;9807;48.258;12.690;2023-07-29T04:27:10;19.50;99.90
19342;DHT22;9807;48.258;12.690;2023-07-29T04:29:35;19.40;99.90
19342;DHT22;9807;48.258;12.690;2023-07-29T04:32:02;19.50;99.90
19342;DHT22;9807;48.258;12.690;2023-07-29T04:34:28;19.60;99.90
19342;DHT22;9807;48.258;12.690;2023-07-29T04:36:54;19.80;99.90
19342;DHT22;9807;48.258;12.690;2023-07-29T04:39:19;19.80;99.90
19342;DHT22;9807;48.258;12.690;2023-07-29T04:41:45;19.90;99.90
19342;DHT22;9807;48.258;12.690;2023-07-29T04:44:11;20.00;99.90
19342;DHT22;9807;48.258;12.690;2023-07-29T04:46:37;20.00;99.90
19342;DHT22;9807;48.258;12.690;2023-07-29T04:49:04;20.10;99.90
19342;DHT22;9807;48.258;12.690;2023-07-29T04:51:31;19.90;99.90
19342;DHT22;9807;48.258;12.690;2023-07-29T04:53:59;19.70;99.90
19342;DHT22;9807;48.258;12.690;2023-07-29T04:56:26;19.80;99.90
19342;DHT22;9807;48.258;12.690;2023-07-29T04:58:51;19.80;99.90
19342;DHT22;9807;48.258;12.690;2023-07-29T05:01:18;19.90;99.90
19342;DHT22;9807;48.258;12.690;2023-07-29T05:03:43;19.80;99.90
19342;DHT22;9807;48.258;12.690;2023-07-29T05:06:09;19.70;99.90
19342;DHT22;9807;48.258;12.690;2023-07-29T05:08:35;19.70;99.90
19342;DHT22;9807;48.258;12.690;2023-07-29T05:11:01;19.80;99.90
19342;DHT22;9807;48.258;12.690;2023-07-29T05:13:26;19.80;99.90
19342;DHT22;9807;48.258;12.690;2023-07-29T05:15:52;19.90;99.90
19342;DHT22;9807;48.258;12.690;2023-07-29T05:18:18;20.00;99.90
19342;DHT22;9807;48.258;12.690;2023-07-29T05:20:44;20.20;99.90
19342;DHT22;9807;48.258;12.690;2023-07-29T05:23:10;20.30;99.90
19342;DHT22;9807;48.258;12.690;2023-07-29T05:25:37;20.50;99.90
19342;DHT22;9807;48.258;12.690;2023-07-29T05:28:03;20.50;99.90
19342;DHT22;9807;48.258;12.690;2023-07-29T05:30:29;20.50;99.90
19342;DHT22;9807;48.258;12.690;2023-07-29T05:32:59;20.60;99.90
19342;DHT22;9807;48.258;12.690;2023-07-29T05:35:25;20.70;99.90
19342;DHT22;9807;48.258;12.690;2023-07-29T05:37:51;20.90;99.90
19342;DHT22;9807;48.258;12.690;2023-07-29T05:40:17;21.00;99.90
19342;DHT22;9807;48.258;12.690;2023-07-29T05:42:42;20.80;99.90
19342;DHT22;9807;48.258;12.690;2023-07-29T05:45:09;20.60;99.90
19342;DHT22;9807;48.258;12.690;2023-07-29T05:47:36;20.60;99.90
19342;DHT22;9807;48.258;12.690;2023-07-29T05:50:02;20.70;99.90
19342;DHT22;9807;48.258;12.690;2023-07-29T05:52:30;20.60;99.90
19342;DHT22;9807;48.258;12.690;2023-07-29T05:54:56;20.60;99.90
19342;DHT22;9807;48.258;12.690;2023-07-29T05:57:21;20.70;99.90
19342;DHT22;9807;48.258;12.690;2023-07-29T05:59:47;20.80;99.90
19342;DHT22;9807;48.258;12.690;2023-07-29T06:02:13;20.90;99.90
19342;DHT22;9807;48.258;12.690;2023-07-29T06:04:38;21.10;99.90
19342;DHT22;9807;48.258;12.690;2023-07-29T06:07:05;21.10;99.90
19342;DHT22;9807;48.258;12.690;2023-07-29T06:09:30;20.90;99.90
19342;DHT22;9807;48.258;12.690;2023-07-29T06:11:56;21.00;99.90
19342;DHT22;9807;48.258;12.690;2023-07-29T06:14:22;21.10;99.90
19342;DHT22;9807;48.258;12.690;2023-07-29T06:16:47;21.30;99.90
19342;DHT22;9807;48.258;12.690;2023-07-29T06:19:13;21.60;99.90
19342;DHT22;9807;48.258;12.690;2023-07-29T06:21:38;21.80;99.90
19342;DHT22;9807;48.258;12.690;2023-07-29T06:24:04;21.50;99.90
19342;DHT22;9807;48.258;12.690;2023-07-29T06:26:30;21.40;99.90
19342;DHT22;9807;48.258;12.690;2023-07-29T06:28:55;21.20;99.90
19342;DHT22;9807;48.258;12.690;2023-07-29T06:31:21;21.30;99.90
19342;DHT22;9807;48.258;12.690;2023-07-29T06:33:47;21.50;99.90
19342;DHT22;9807;48.258;12.690;2023-07-29T06:36:13;21.30;99.90
19342;DHT22;9807;48.258;12.690;2023-07-29T06:38:39;21.60;99.90
19342;DHT22;9807;48.258;12.690;2023-07-29T06:41:04;21.90;99.90
19342;DHT22;9807;48.258;12.690;2023-07-29T06:43:30;22.40;99.90
19342;DHT22;9807;48.258;12.690;2023-07-29T06:45:56;22.70;99.90
19342;DHT22;9807;48.258;12.690;2023-07-29T06:48:22;23.00;99.90
19342;DHT22;9807;48.258;12.690;2023-07-29T06:50:48;23.30;99.90
19342;DHT22;9807;48.258;12.690;2023-07-29T06:53:15;23.30;99.90
19342;DHT22;9807;48.258;12.690;2023-07-29T06:55:44;23.30;99.90
19342;DHT22;9807;48.258;12.690;2023-07-29T06:58:13;23.60;99.90
19342;DHT22;9807;48.258;12.690;2023-07-29T07:00:38;23.80;99.90
19342;DHT22;9807;48.258;12.690;2023-07-29T07:03:04;23.60;99.90
19342;DHT22;9807;48.258;12.690;2023-07-29T07:05:33;23.40;99.90
19342;DHT22;9807;48.258;12.690;2023-07-29T07:07:58;23.30;99.90
19342;DHT22;9807;48.258;12.690;2023-07-29T07:10:24;23.40;99.90
19342;DHT22;9807;48.258;12.690;2023-07-29T07:12:49;23.70;99.90
19342;DHT22;9807;48.258;12.690;2023-07-29T07:15:15;24.00;99.90
19342;DHT22;9807;48.258;12.690;2023-07-29T07:17:41;24.40;99.90
19342;DHT22;9807;48.258;12.690;2023-07-29T07:20:07;24.50;99.90
19342;DHT22;9807;48.258;12.690;2023-07-29T07:22:33;24.50;99.90
19342;DHT22;9807;48.258;12.690;2023-07-29T07:24:58;24.50;99.90
19342;DHT22;9807;48.258;12.690;2023-07-29T07:27:24;24.60;99.90
19342;DHT22;9807;48.258;12.690;2023-07-29T07:29:53;24.50;99.90
19342;DHT22;9807;48.258;12.690;2023-07-29T07:32:19;24.80;99.90
19342;DHT22;9807;48.258;12.690;2023-07-29T07:34:44;25.00;99.90
19342;DHT22;9807;48.258;12.690;2023-07-29T07:37:10;25.30;99.90
19342;DHT22;9807;48.258;12.690;2023-07-29T07:39:35;25.50;99.90
19342;DHT22;9807;48.258;12.690;2023-07-29T07:42:01;25.60;99.90
19342;DHT22;9807;48.258;12.690;2023-07-29T07:44:27;25.50;99.90
19342;DHT22;9807;48.258;12.690;2023-07-29T07:46:53;25.40;99.90
19342;DHT22;9807;48.258;12.690;2023-07-29T07:49:22;24.90;99.90
19342;DHT22;9807;48.258;12.690;2023-07-29T07:51:47;24.50;99.90
19342;DHT22;9807;48.258;12.690;2023-07-29T07:54:13;24.10;99.90
19342;DHT22;9807;48.258;12.690;2023-07-29T07:56:39;24.10;99.90
19342;DHT22;9807;48.258;12.690;2023-07-29T07:59:04;24.20;99.90
19342;DHT22;9807;48.258;12.690;2023-07-29T08:01:37;23.80;99.90
19342;DHT22;9807;48.258;12.690;2023-07-29T08:04:04;23.40;99.90
19342;DHT22;9807;48.258;12.690;2023-07-29T08:06:30;23.40;99.90
19342;DHT22;9807;48.258;12.690;2023-07-29T08:08:56;23.20;99.90
19342;DHT22;9807;48.258;12.690;2023-07-29T08:11:22;23.30;99.90
19342;DHT22;9807;48.258;12.690;2023-07-29T08:13:47;23.40;99.90
19342;DHT22;9807;48.258;12.690;2023-07-29T08:16:13;23.00;99.90
19342;DHT22;9807;48.258;12.690;2023-07-29T08:18:39;22.80;99.90
19342;DHT22;9807;48.258;12.690;2023-07-29T08:21:05;22.70;99.90
19342;DHT22;9807;48.258;12.690;2023-07-29T08:23:33;22.50;99.90
19342;DHT22;9807;48.258;12.690;2023-07-29T08:26:01;22.30;99.90
19342;DHT22;9807;48.258;12.690;2023-07-29T08:28:38;22.10;99.90
19342;DHT22;9807;48.258;12.690;2023-07-29T08:31:04;22.10;99.90
19342;DHT22;9807;48.258;12.690;2023-07-29T08:33:30;21.80;99.90
19342;DHT22;9807;48.258;12.690;2023-07-29T08:35:57;21.80;99.90
19342;DHT22;9807;48.258;12.690;2023-07-29T08:38:22;21.80;99.90
19342;DHT22;9807;48.258;12.690;2023-07-29T08:43:29;21.70;99.90
19342;DHT22;9807;48.258;12.690;2023-07-29T08:46:01;21.60;99.90
19342;DHT22;9807;48.258;12.690;2023-07-29T08:48:36;21.70;99.90
19342;DHT22;9807;48.258;12.690;2023-07-29T08:51:05;21.90;99.90
19342;DHT22;9807;48.258;12.690;2023-07-29T08:53:33;21.80;99.90
19342;DHT22;9807;48.258;12.690;2023-07-29T08:55:59;21.70;99.90
19342;DHT22;9807;48.258;12.690;2023-07-29T08:58:25;21.70;99.90
19342;DHT22;9807;48.258;12.690;2023-07-29T09:00:51;21.60;99.90
19342;DHT22;9807;48.258;12.690;2023-07-29T09:03:17;21.90;99.90
19342;DHT22;9807;48.258;12.690;2023-07-29T09:05:43;22.20;99.90
19342;DHT22;9807;48.258;12.690;2023-07-29T09:08:09;22.20;99.90
19342;DHT22;9807;48.258;12.690;2023-07-29T09:10:36;22.20;99.90
19342;DHT22;9807;48.258;12.690;2023-07-29T09:13:03;22.20;99.90
19342;DHT22;9807;48.258;12.690;2023-07-29T09:15:33;22.50;99.90
19342;DHT22;9807;48.258;12.690;2023-07-29T09:17:59;22.50;99.90
19342;DHT22;9807;48.258;12.690;2023-07-29T09:20:33;22.60;99.90
19342;DHT22;9807;48.258;12.690;2023-07-29T09:22:59;22.50;99.90
19342;DHT22;9807;48.258;12.690;2023-07-29T09:25:29;22.60;99.90
19342;DHT22;9807;48.258;12.690;2023-07-29T09:28:02;22.60;99.90
19342;DHT22;9807;48.258;12.690;2023-07-29T09:30:32;22.50;99.90
19342;DHT22;9807;48.258;12.690;2023-07-29T09:32:58;22.50;99.90
19342;DHT22;9807;48.258;12.690;2023-07-29T09:35:26;22.40;99.90
19342;DHT22;9807;48.258;12.690;2023-07-29T09:37:53;22.40;99.90
19342;DHT22;9807;48.258;12.690;2023-07-29T09:40:19;22.40;99.90
19342;DHT22;9807;48.258;12.690;2023-07-29T09:42:49;22.40;99.90
19342;DHT22;9807;48.258;12.690;2023-07-29T09:45:23;22.40;99.90
19342;DHT22;9807;48.258;12.690;2023-07-29T09:47:49;22.50;99.90
19342;DHT22;9807;48.258;12.690;2023-07-29T09:50:16;22.50;99.90
19342;DHT22;9807;48.258;12.690;2023-07-29T09:52:42;22.80;99.90
19342;DHT22;9807;48.258;12.690;2023-07-29T09:55:12;23.00;99.90
19342;DHT22;9807;48.258;12.690;2023-07-29T09:57:40;22.90;99.90
19342;DHT22;9807;48.258;12.690;2023-07-29T10:00:11;23.00;99.90
19342;DHT22;9807;48.258;12.690;2023-07-29T10:02:42;23.20;99.90
19342;DHT22;9807;48.258;12.690;2023-07-29T10:05:08;23.40;99.90
19342;DHT22;9807;48.258;12.690;2023-07-29T10:07:37;23.50;99.90
19342;DHT22;9807;48.258;12.690;2023-07-29T10:10:04;23.40;99.90
19342;DHT22;9807;48.258;12.690;2023-07-29T10:12:31;23.20;99.90
19342;DHT22;9807;48.258;12.690;2023-07-29T10:15:05;23.20;99.90
19342;DHT22;9807;48.258;12.690;2023-07-29T10:17:34;23.60;99.90
19342;DHT22;9807;48.258;12.690;2023-07-29T10:20:00;23.90;99.90
19342;DHT22;9807;48.258;12.690;2023-07-29T10:22:37;24.10;99.90
19342;DHT22;9807;48.258;12.690;2023-07-29T10:25:05;24.40;99.90
19342;DHT22;9807;48.258;12.690;2023-07-29T10:28:00;24.70;99.90
19342;DHT22;9807;48.258;12.690;2023-07-29T10:30:28;24.50;99.90
19342;DHT22;9807;48.258;12.690;2023-07-29T10:32:55;24.20;99.90
19342;DHT22;9807;48.258;12.690;2023-07-29T10:35:22;24.20;99.90
19342;DHT22;9807;48.258;12.690;2023-07-29T10:37:48;24.20;99.90
19342;DHT22;9807;48.258;12.690;2023-07-29T10:40:16;24.40;99.90
19342;DHT22;9807;48.258;12.690;2023-07-29T10:43:03;24.90;99.90
19342;DHT22;9807;48.258;12.690;2023-07-29T10:45:38;25.30;99.90
19342;DHT22;9807;48.258;12.690;2023-07-29T10:48:12;25.50;99.90
19342;DHT22;9807;48.258;12.690;2023-07-29T10:50:38;25.70;99.90
19342;DHT22;9807;48.258;12.690;2023-07-29T10:53:04;25.70;99.90
19342;DHT22;9807;48.258;12.690;2023-07-29T10:55:35;25.70;99.90
19342;DHT22;9807;48.258;12.690;2023-07-29T10:58:13;25.90;99.90
19342;DHT22;9807;48.258;12.690;2023-07-29T11:00:41;26.10;99.90
19342;DHT22;9807;48.258;12.690;2023-07-29T11:03:08;26.30;99.90
19342;DHT22;9807;48.258;12.690;2023-07-29T11:05:45;26.40;99.90
19342;DHT22;9807;48.258;12.690;2023-07-29T11:08:30;26.30;99.90
19342;DHT22;9807;48.258;12.690;2023-07-29T11:11:08;26.00;99.90
19342;DHT22;9807;48.258;12.690;2023-07-29T11:13:38;26.20;99.90
19342;DHT22;9807;48.258;12.690;2023-07-29T11:16:04;26.30;99.90
19342;DHT22;9807;48.258;12.690;2023-07-29T11:18:32;26.40;99.90
19342;DHT22;9807;48.258;12.690;2023-07-29T11:20:59;26.40;99.90
19342;DHT22;9807;48.258;12.690;2023-07-29T11:23:33;26.30;99.90
19342;DHT22;9807;48.258;12.690;2023-07-29T11:25:59;26.40;99.90
19342;DHT22;9807;48.258;12.690;2023-07-29T11:28:26;26.60;99.90
19342;DHT22;9807;48.258;12.690;2023-07-29T11:30:52;26.40;99.90
19342;DHT22;9807;48.258;12.690;2023-07-29T11:33:26;26.20;99.90
19342;DHT22;9807;48.258;12.690;2023-07-29T11:35:53;26.00;99.90
19342;DHT22;9807;48.258;12.690;2023-07-29T11:38:20;25.90;99.90
19342;DHT22;9807;48.258;12.690;2023-07-29T11:40:58;26.10;99.90
19342;DHT22;9807;48.258;12.690;2023-07-29T11:43:24;26.40;99.90
19342;DHT22;9807;48.258;12.690;2023-07-29T11:45:50;26.50;99.90
19342;DHT22;9807;48.258;12.690;2023-07-29T11:48:16;26.60;99.90
19342;DHT22;9807;48.258;12.690;2023-07-29T11:50:42;26.70;99.90
19342;DHT22;9807;48.258;12.690;2023-07-29T11:53:08;26.90;99.90
19342;DHT22;9807;48.258;12.690;2023-07-29T11:55:34;26.90;99.90
19342;DHT22;9807;48.258;12.690;2023-07-29T11:58:01;27.00;99.90
19342;DHT22;9807;48.258;12.690;2023-07-29T12:00:27;27.00;99.90
19342;DHT22;9807;48.258;12.690;2023-07-29T12:02:56;26.30;99.90
19342;DHT22;9807;48.258;12.690;2023-07-29T12:05:22;24.40;99.90
19342;DHT22;9807;48.258;12.690;2023-07-29T12:07:48;21.80;99.90
19342;DHT22;9807;48.258;12.690;2023-07-29T12:10:14;19.70;99.90
19342;DHT22;9807;48.258;12.690;2023-07-29T12:12:47;18.90;99.90
19342;DHT22;9807;48.258;12.690;2023-07-29T12:15:13;18.60;99.90
19342;DHT22;9807;48.258;12.690;2023-07-29T12:17:47;18.70;99.90
19342;DHT22;9807;48.258;12.690;2023-07-29T12:20:13;18.90;99.90
19342;DHT22;9807;48.258;12.690;2023-07-29T12:22:39;19.20;99.90
19342;DHT22;9807;48.258;12.690;2023-07-29T12:25:05;19.40;99.90
19342;DHT22;9807;48.258;12.690;2023-07-29T12:27:31;19.80;99.90
19342;DHT22;9807;48.258;12.690;2023-07-29T12:29:58;20.20;99.90
19342;DHT22;9807;48.258;12.690;2023-07-29T12:32:29;20.80;99.90
19342;DHT22;9807;48.258;12.690;2023-07-29T12:34:55;20.90;99.90
19342;DHT22;9807;48.258;12.690;2023-07-29T12:37:31;20.90;99.90
19342;DHT22;9807;48.258;12.690;2023-07-29T12:39:58;21.00;99.90
19342;DHT22;9807;48.258;12.690;2023-07-29T12:42:23;21.40;99.90
19342;DHT22;9807;48.258;12.690;2023-07-29T12:44:49;22.10;99.90
19342;DHT22;9807;48.258;12.690;2023-07-29T12:47:14;22.70;99.90
19342;DHT22;9807;48.258;12.690;2023-07-29T12:49:42;23.20;99.90
19342;DHT22;9807;48.258;12.690;2023-07-29T12:52:08;23.50;99.90
19342;DHT22;9807;48.258;12.690;2023-07-29T12:54:34;23.70;99.90
19342;DHT22;9807;48.258;12.690;2023-07-29T12:56:59;24.00;99.90
19342;DHT22;9807;48.258;12.690;2023-07-29T12:59:25;24.20;99.90
19342;DHT22;9807;48.258;12.690;2023-07-29T13:01:50;24.30;99.90
19342;DHT22;9807;48.258;12.690;2023-07-29T13:04:16;24.40;99.90
19342;DHT22;9807;48.258;12.690;2023-07-29T13:06:42;24.10;99.90
19342;DHT22;9807;48.258;12.690;2023-07-29T13:09:07;23.70;99.90
19342;DHT22;9807;48.258;12.690;2023-07-29T13:11:33;23.90;99.90
19342;DHT22;9807;48.258;12.690;2023-07-29T13:13:59;24.20;99.90
19342;DHT22;9807;48.258;12.690;2023-07-29T13:16:26;24.50;99.90
19342;DHT22;9807;48.258;12.690;2023-07-29T13:18:52;24.70;99.90
19342;DHT22;9807;48.258;12.690;2023-07-29T13:21:17;24.60;99.90
19342;DHT22;9807;48.258;12.690;2023-07-29T13:23:43;24.60;99.90
19342;DHT22;9807;48.258;12.690;2023-07-29T13:26:09;24.70;99.90
19342;DHT22;9807;48.258;12.690;2023-07-29T13:28:34;24.90;99.90
19342;DHT22;9807;48.258;12.690;2023-07-29T13:31:00;25.00;99.90
19342;DHT22;9807;48.258;12.690;2023-07-29T13:33:26;25.10;99.90
19342;DHT22;9807;48.258;12.690;2023-07-29T13:35:55;25.10;99.90
19342;DHT22;9807;48.258;12.690;2023-07-29T13:38:21;25.20;99.90
19342;DHT22;9807;48.258;12.690;2023-07-29T13:40:46;25.10;99.90
19342;DHT22;9807;48.258;12.690;2023-07-29T13:43:12;24.60;99.90
19342;DHT22;9807;48.258;12.690;2023-07-29T13:45:41;24.40;99.90
19342;DHT22;9807;48.258;12.690;2023-07-29T13:48:06;24.10;99.90
19342;DHT22;9807;48.258;12.690;2023-07-29T13:50:32;23.80;99.90
19342;DHT22;9807;48.258;12.690;2023-07-29T13:52:58;23.50;99.90
19342;DHT22;9807;48.258;12.690;2023-07-29T13:55:23;23.30;99.90
19342;DHT22;9807;48.258;12.690;2023-07-29T13:57:49;23.70;99.90
19342;DHT22;9807;48.258;12.690;2023-07-29T14:00:15;23.80;99.90
19342;DHT22;9807;48.258;12.690;2023-07-29T14:02:41;24.10;99.90
19342;DHT22;9807;48.258;12.690;2023-07-29T14:05:08;24.30;99.90
19342;DHT22;9807;48.258;12.690;2023-07-29T14:07:33;24.40;99.90
19342;DHT22;9807;48.258;12.690;2023-07-29T14:09:59;24.60;99.90
19342;DHT22;9807;48.258;12.690;2023-07-29T14:12:25;24.70;99.90
19342;DHT22;9807;48.258;12.690;2023-07-29T14:14:50;24.90;99.90
19342;DHT22;9807;48.258;12.690;2023-07-29T14:17:16;24.80;99.90
19342;DHT22;9807;48.258;12.690;2023-07-29T14:19:42;24.40;99.90
19342;DHT22;9807;48.258;12.690;2023-07-29T14:22:07;24.30;99.90
19342;DHT22;9807;48.258;12.690;2023-07-29T14:24:33;24.40;99.90
19342;DHT22;9807;48.258;12.690;2023-07-29T14:26:59;24.60;99.90
19342;DHT22;9807;48.258;12.690;2023-07-29T14:29:24;24.80;99.90
19342;DHT22;9807;48.258;12.690;2023-07-29T14:31:50;24.90;99.90
19342;DHT22;9807;48.258;12.690;2023-07-29T14:34:16;25.10;99.90
19342;DHT22;9807;48.258;12.690;2023-07-29T14:36:41;25.20;99.90
19342;DHT22;9807;48.258;12.690;2023-07-29T14:39:07;25.10;99.90
19342;DHT22;9807;48.258;12.690;2023-07-29T14:41:33;25.20;99.90
19342;DHT22;9807;48.258;12.690;2023-07-29T14:43:58;25.20;99.90
19342;DHT22;9807;48.258;12.690;2023-07-29T14:46:24;25.20;99.90
19342;DHT22;9807;48.258;12.690;2023-07-29T14:48:50;25.20;99.90
19342;DHT22;9807;48.258;12.690;2023-07-29T14:51:15;25.30;99.90
19342;DHT22;9807;48.258;12.690;2023-07-29T14:53:41;25.30;99.90
19342;DHT22;9807;48.258;12.690;2023-07-29T14:56:07;25.30;99.90
19342;DHT22;9807;48.258;12.690;2023-07-29T14:58:33;25.30;99.90
19342;DHT22;9807;48.258;12.690;2023-07-29T15:00:58;25.40;99.90
19342;DHT22;9807;48.258;12.690;2023-07-29T15:03:24;25.40;99.90
19342;DHT22;9807;48.258;12.690;2023-07-29T15:05:51;25.50;99.90
19342;DHT22;9807;48.258;12.690;2023-07-29T15:08:16;25.40;99.90
19342;DHT22;9807;48.258;12.690;2023-07-29T15:10:47;25.50;99.90
19342;DHT22;9807;48.258;12.690;2023-07-29T15:13:13;25.30;99.90
19342;DHT22;9807;48.258;12.690;2023-07-29T15:15:43;25.30;99.90
19342;DHT22;9807;48.258;12.690;2023-07-29T15:18:09;25.30;99.90
19342;DHT22;9807;48.258;12.690;2023-07-29T15:20:35;25.30;99.90
19342;DHT22;9807;48.258;12.690;2023-07-29T15:23:00;25.40;99.90
19342;DHT22;9807;48.258;12.690;2023-07-29T15:25:26;25.40;99.90
19342;DHT22;9807;48.258;12.690;2023-07-29T15:27:51;25.40;99.90
19342;DHT22;9807;48.258;12.690;2023-07-29T15:30:17;25.40;99.90
19342;DHT22;9807;48.258;12.690;2023-07-29T15:32:43;25.40;99.90
19342;DHT22;9807;48.258;12.690;2023-07-29T15:35:10;25.40;99.90
19342;DHT22;9807;48.258;12.690;2023-07-29T15:37:36;25.10;99.90
19342;DHT22;9807;48.258;12.690;2023-07-29T15:40:02;25.10;99.90